sensor_id;sensor_type;location;lat;lon;timestamp;temperature;humidity
20773;DHT22;10546;50.674;4.616;2022-08-04T00:00:05;24.90;99.90
20773;DHT22;10546;50.674;4.616;2022-08-04T00:10:30;24.70;99.90
20773;DHT22;10546;50.674;4.616;2022-08-04T00:12:57;24.70;99.90
20773;DHT22;10546;50.674;4.616;2022-08-04T00:15:25;24.70;99.90
20773;DHT22;10546;50.674;4.616;2022-08-04T00:18:02;24.80;99.90
20773;DHT22;10546;50.674;4.616;2022-08-04T00:20:32;24.80;99.90
20773;DHT22;10546;50.674;4.616;2022-08-04T00:22:59;24.80;99.90
20773;DHT22;10546;50.674;4.616;2022-08-04T00:25:25;24.90;99.90
20773;DHT22;10546;50.674;4.616;2022-08-04T00:27:51;24.90;99.90
20773;DHT22;10546;50.674;4.616;2022-08-04T00:30:16;24.90;99.90
20773;DHT22;10546;50.674;4.616;2022-08-04T00:32:42;25.10;99.90
20773;DHT22;10546;50.674;4.616;2022-08-04T00:35:09;25.30;99.90
20773;DHT22;10546;50.674;4.616;2022-08-04T00:37:36;25.30;99.90
20773;DHT22;10546;50.674;4.616;2022-08-04T00:40:11;25.40;99.90
20773;DHT22;10546;50.674;4.616;2022-08-04T00:42:53;25.40;99.90
20773;DHT22;10546;50.674;4.616;2022-08-04T00:45:33;25.50;99.90
20773;DHT22;10546;50.674;4.616;2022-08-04T01:01:04;25.30;99.90
20773;DHT22;10546;50.674;4.616;2022-08-04T01:03:59;25.20;99.90
20773;DHT22;10546;50.674;4.616;2022-08-04T01:06:36;25.20;99.90
20773;DHT22;10546;50.674;4.616;2022-08-04T01:20:24;24.60;99.90
20773;DHT22;10546;50.674;4.616;2022-08-04T01:30:45;24.10;99.90
20773;DHT22;10546;50.674;4.616;2022-08-04T01:33:13;24.00;99.90
20773;DHT22;10546;50.674;4.616;2022-08-04T01:35:54;23.90;99.90
20773;DHT22;10546;50.674;4.616;2022-08-04T01:38:34;23.80;99.90
20773;DHT22;10546;50.674;4.616;2022-08-04T01:41:20;23.80;99.90
20773;DHT22;10546;50.674;4.616;2022-08-04T01:43:46;23.80;99.90
20773;DHT22;10546;50.674;4.616;2022-08-04T01:46:16;23.70;99.90
20773;DHT22;10546;50.674;4.616;2022-08-04T01:48:45;23.60;99.90
20773;DHT22;10546;50.674;4.616;2022-08-04T01:51:11;23.40;99.90
20773;DHT22;10546;50.674;4.616;2022-08-04T01:53:39;23.30;99.90
20773;DHT22;10546;50.674;4.616;2022-08-04T01:56:10;23.20;99.90
20773;DHT22;10546;50.674;4.616;2022-08-04T01:58:37;23.20;99.90
20773;DHT22;10546;50.674;4.616;2022-08-04T02:01:10;23.10;99.90
20773;DHT22;10546;50.674;4.616;2022-08-04T02:03:41;23.10;99.90
20773;DHT22;10546;50.674;4.616;2022-08-04T02:09:07;23.20;99.90
20773;DHT22;10546;50.674;4.616;2022-08-04T02:11:35;23.20;99.90
20773;DHT22;10546;50.674;4.616;2022-08-04T02:16:59;23.10;99.90
20773;DHT22;10546;50.674;4.616;2022-08-04T02:22:16;22.80;99.90
20773;DHT22;10546;50.674;4.616;2022-08-04T02:24:48;22.80;99.90
20773;DHT22;10546;50.674;4.616;2022-08-04T02:27:16;22.70;99.90
20773;DHT22;10546;50.674;4.616;2022-08-04T02:29:53;22.80;99.90
20773;DHT22;10546;50.674;4.616;2022-08-04T02:32:25;22.70;99.90
20773;DHT22;10546;50.674;4.616;2022-08-04T02:35:24;22.70;99.90
20773;DHT22;10546;50.674;4.616;2022-08-04T02:38:11;22.60;99.90
20773;DHT22;10546;50.674;4.616;2022-08-04T02:40:41;22.60;99.90
20773;DHT22;10546;50.674;4.616;2022-08-04T02:43:09;22.50;99.90
20773;DHT22;10546;50.674;4.616;2022-08-04T02:45:36;22.30;99.90
20773;DHT22;10546;50.674;4.616;2022-08-04T02:48:03;22.10;99.90
20773;DHT22;10546;50.674;4.616;2022-08-04T02:50:33;21.90;99.90
20773;DHT22;10546;50.674;4.616;2022-08-04T02:53:03;21.80;99.90
20773;DHT22;10546;50.674;4.616;2022-08-04T02:55:30;21.70;99.90
20773;DHT22;10546;50.674;4.616;2022-08-04T02:57:57;21.80;99.90
20773;DHT22;10546;50.674;4.616;2022-08-04T03:00:26;21.70;99.90
20773;DHT22;10546;50.674;4.616;2022-08-04T03:02:54;21.70;99.90
20773;DHT22;10546;50.674;4.616;2022-08-04T03:05:33;21.70;99.90
20773;DHT22;10546;50.674;4.616;2022-08-04T03:13:49;21.70;99.90
20773;DHT22;10546;50.674;4.616;2022-08-04T03:30:07;21.90;99.90
20773;DHT22;10546;50.674;4.616;2022-08-04T03:33:03;22.00;99.90
20773;DHT22;10546;50.674;4.616;2022-08-04T03:44:56;21.80;99.90
20773;DHT22;10546;50.674;4.616;2022-08-04T03:47:44;21.70;99.90
20773;DHT22;10546;50.674;4.616;2022-08-04T03:54:08;21.80;99.90
20773;DHT22;10546;50.674;4.616;2022-08-04T04:02:34;21.60;99.90
20773;DHT22;10546;50.674;4.616;2022-08-04T04:10:57;21.60;99.90
20773;DHT22;10546;50.674;4.616;2022-08-04T04:13:36;21.70;99.90
20773;DHT22;10546;50.674;4.616;2022-08-04T04:22:12;21.50;99.90
20773;DHT22;10546;50.674;4.616;2022-08-04T04:30:18;21.50;99.90
20773;DHT22;10546;50.674;4.616;2022-08-04T04:35:40;21.50;99.90
20773;DHT22;10546;50.674;4.616;2022-08-04T04:48:52;21.80;99.90
20773;DHT22;10546;50.674;4.616;2022-08-04T04:51:22;21.90;99.90
20773;DHT22;10546;50.674;4.616;2022-08-04T04:54:03;22.00;99.90
20773;DHT22;10546;50.674;4.616;2022-08-04T04:56:44;22.20;99.90
20773;DHT22;10546;50.674;4.616;2022-08-04T04:59:18;22.30;99.90
20773;DHT22;10546;50.674;4.616;2022-08-04T05:01:49;22.40;99.90
20773;DHT22;10546;50.674;4.616;2022-08-04T05:04:46;22.40;99.90
20773;DHT22;10546;50.674;4.616;2022-08-04T05:10:34;22.80;99.90
20773;DHT22;10546;50.674;4.616;2022-08-04T05:15:53;22.90;99.90
20773;DHT22;10546;50.674;4.616;2022-08-04T05:18:23;23.00;99.90
20773;DHT22;10546;50.674;4.616;2022-08-04T05:20:56;23.10;99.90
20773;DHT22;10546;50.674;4.616;2022-08-04T05:23:26;23.20;99.90
20773;DHT22;10546;50.674;4.616;2022-08-04T05:26:12;23.20;99.90
20773;DHT22;10546;50.674;4.616;2022-08-04T05:28:47;23.20;99.90
20773;DHT22;10546;50.674;4.616;2022-08-04T05:31:17;23.40;99.90
20773;DHT22;10546;50.674;4.616;2022-08-04T05:33:52;23.40;99.90
20773;DHT22;10546;50.674;4.616;2022-08-04T05:36:22;23.50;99.90
20773;DHT22;10546;50.674;4.616;2022-08-04T05:38:52;23.60;99.90
20773;DHT22;10546;50.674;4.616;2022-08-04T05:41:20;23.70;99.90
20773;DHT22;10546;50.674;4.616;2022-08-04T05:43:47;23.80;99.90
20773;DHT22;10546;50.674;4.616;2022-08-04T05:46:15;23.90;99.90
20773;DHT22;10546;50.674;4.616;2022-08-04T05:48:42;24.10;99.90
20773;DHT22;10546;50.674;4.616;2022-08-04T05:51:09;24.80;99.90
20773;DHT22;10546;50.674;4.616;2022-08-04T05:53:36;25.90;99.90
20773;DHT22;10546;50.674;4.616;2022-08-04T05:56:04;26.90;99.90
20773;DHT22;10546;50.674;4.616;2022-08-04T05:58:32;27.80;99.90
20773;DHT22;10546;50.674;4.616;2022-08-04T06:01:00;28.40;99.90
20773;DHT22;10546;50.674;4.616;2022-08-04T06:03:28;28.50;99.90
20773;DHT22;10546;50.674;4.616;2022-08-04T06:05:56;28.20;99.90
20773;DHT22;10546;50.674;4.616;2022-08-04T06:08:23;27.40;99.90
20773;DHT22;10546;50.674;4.616;2022-08-04T06:10:50;26.70;99.90
20773;DHT22;10546;50.674;4.616;2022-08-04T06:13:20;26.40;99.90
20773;DHT22;10546;50.674;4.616;2022-08-04T06:15:49;26.00;99.90
20773;DHT22;10546;50.674;4.616;2022-08-04T06:18:16;25.60;99.90
20773;DHT22;10546;50.674;4.616;2022-08-04T06:20:45;25.10;99.90
20773;DHT22;10546;50.674;4.616;2022-08-04T06:23:14;25.20;99.90
20773;DHT22;10546;50.674;4.616;2022-08-04T06:25:49;25.40;99.90
20773;DHT22;10546;50.674;4.616;2022-08-04T06:28:16;26.40;99.90
20773;DHT22;10546;50.674;4.616;2022-08-04T06:30:43;27.00;99.90
20773;DHT22;10546;50.674;4.616;2022-08-04T06:33:15;27.20;99.90
20773;DHT22;10546;50.674;4.616;2022-08-04T06:36:03;27.30;99.90
20773;DHT22;10546;50.674;4.616;2022-08-04T06:38:32;27.40;99.90
20773;DHT22;10546;50.674;4.616;2022-08-04T06:41:00;28.00;99.90
20773;DHT22;10546;50.674;4.616;2022-08-04T06:43:29;28.70;99.90
20773;DHT22;10546;50.674;4.616;2022-08-04T06:45:56;28.70;99.90
20773;DHT22;10546;50.674;4.616;2022-08-04T06:48:24;28.50;99.90
20773;DHT22;10546;50.674;4.616;2022-08-04T06:50:52;28.60;99.90
20773;DHT22;10546;50.674;4.616;2022-08-04T06:53:18;28.80;99.90
20773;DHT22;10546;50.674;4.616;2022-08-04T06:55:45;29.30;99.90
20773;DHT22;10546;50.674;4.616;2022-08-04T06:58:12;30.20;99.90
20773;DHT22;10546;50.674;4.616;2022-08-04T07:00:40;30.50;99.90
20773;DHT22;10546;50.674;4.616;2022-08-04T07:03:06;30.90;99.90
20773;DHT22;10546;50.674;4.616;2022-08-04T07:05:33;31.80;99.90
20773;DHT22;10546;50.674;4.616;2022-08-04T07:07:58;32.40;99.90
20773;DHT22;10546;50.674;4.616;2022-08-04T07:10:26;33.40;99.90
20773;DHT22;10546;50.674;4.616;2022-08-04T07:12:52;33.90;99.90
20773;DHT22;10546;50.674;4.616;2022-08-04T07:15:19;34.10;99.90
20773;DHT22;10546;50.674;4.616;2022-08-04T07:17:46;33.50;99.90
20773;DHT22;10546;50.674;4.616;2022-08-04T07:20:12;32.60;99.90
20773;DHT22;10546;50.674;4.616;2022-08-04T07:22:37;31.70;99.90
20773;DHT22;10546;50.674;4.616;2022-08-04T07:25:09;31.30;99.90
20773;DHT22;10546;50.674;4.616;2022-08-04T07:27:35;30.50;99.90
20773;DHT22;10546;50.674;4.616;2022-08-04T07:30:04;29.70;99.90
20773;DHT22;10546;50.674;4.616;2022-08-04T07:32:31;28.90;99.90
20773;DHT22;10546;50.674;4.616;2022-08-04T07:34:57;28.70;99.90
20773;DHT22;10546;50.674;4.616;2022-08-04T07:37:23;28.50;99.90
20773;DHT22;10546;50.674;4.616;2022-08-04T07:39:48;28.40;99.90
20773;DHT22;10546;50.674;4.616;2022-08-04T07:42:17;28.50;99.90
20773;DHT22;10546;50.674;4.616;2022-08-04T07:44:44;28.10;99.90
20773;DHT22;10546;50.674;4.616;2022-08-04T07:47:11;28.30;99.90
20773;DHT22;10546;50.674;4.616;2022-08-04T07:49:37;28.10;99.90
20773;DHT22;10546;50.674;4.616;2022-08-04T07:52:03;28.10;99.90
20773;DHT22;10546;50.674;4.616;2022-08-04T07:54:29;28.10;99.90
20773;DHT22;10546;50.674;4.616;2022-08-04T07:56:55;28.00;99.90
20773;DHT22;10546;50.674;4.616;2022-08-04T07:59:21;28.10;99.90
20773;DHT22;10546;50.674;4.616;2022-08-04T08:01:47;28.20;99.90
20773;DHT22;10546;50.674;4.616;2022-08-04T08:04:13;28.10;99.90
20773;DHT22;10546;50.674;4.616;2022-08-04T08:06:40;27.80;99.90
20773;DHT22;10546;50.674;4.616;2022-08-04T08:09:13;27.50;99.90
20773;DHT22;10546;50.674;4.616;2022-08-04T08:11:45;27.40;99.90
20773;DHT22;10546;50.674;4.616;2022-08-04T08:14:12;27.30;99.90
20773;DHT22;10546;50.674;4.616;2022-08-04T08:16:37;27.50;99.90
20773;DHT22;10546;50.674;4.616;2022-08-04T08:19:04;27.70;99.90
20773;DHT22;10546;50.674;4.616;2022-08-04T08:21:30;28.90;99.90
20773;DHT22;10546;50.674;4.616;2022-08-04T08:23:56;30.30;99.90
20773;DHT22;10546;50.674;4.616;2022-08-04T08:26:22;30.30;99.90
20773;DHT22;10546;50.674;4.616;2022-08-04T08:28:48;30.30;99.90
20773;DHT22;10546;50.674;4.616;2022-08-04T08:31:14;29.50;99.90
20773;DHT22;10546;50.674;4.616;2022-08-04T08:33:40;28.80;99.90
20773;DHT22;10546;50.674;4.616;2022-08-04T08:36:33;28.50;99.90
20773;DHT22;10546;50.674;4.616;2022-08-04T08:39:02;27.70;99.90
20773;DHT22;10546;50.674;4.616;2022-08-04T08:51:26;26.80;99.90
20773;DHT22;10546;50.674;4.616;2022-08-04T09:07:48;26.50;99.90
20773;DHT22;10546;50.674;4.616;2022-08-04T09:19:09;26.10;99.90
20773;DHT22;10546;50.674;4.616;2022-08-04T09:24:59;26.10;99.90
20773;DHT22;10546;50.674;4.616;2022-08-04T09:30:12;26.00;99.90
20773;DHT22;10546;50.674;4.616;2022-08-04T09:35:50;26.10;99.90
20773;DHT22;10546;50.674;4.616;2022-08-04T09:41:30;26.10;99.90
20773;DHT22;10546;50.674;4.616;2022-08-04T09:44:41;26.00;99.90
20773;DHT22;10546;50.674;4.616;2022-08-04T09:47:32;26.00;99.90
20773;DHT22;10546;50.674;4.616;2022-08-04T09:58:08;27.70;99.90
20773;DHT22;10546;50.674;4.616;2022-08-04T10:00:43;28.90;99.90
20773;DHT22;10546;50.674;4.616;2022-08-04T10:03:10;30.40;99.90
20773;DHT22;10546;50.674;4.616;2022-08-04T10:10:55;31.20;99.90
20773;DHT22;10546;50.674;4.616;2022-08-04T10:26:50;28.90;99.90
20773;DHT22;10546;50.674;4.616;2022-08-04T10:29:29;29.00;99.90
20773;DHT22;10546;50.674;4.616;2022-08-04T10:32:08;28.60;99.90
20773;DHT22;10546;50.674;4.616;2022-08-04T10:35:09;28.20;99.90
20773;DHT22;10546;50.674;4.616;2022-08-04T10:40:09;28.00;99.90
20773;DHT22;10546;50.674;4.616;2022-08-04T10:45:41;28.80;99.90
20773;DHT22;10546;50.674;4.616;2022-08-04T10:53:49;29.50;99.90
20773;DHT22;10546;50.674;4.616;2022-08-04T10:56:31;29.70;99.90
20773;DHT22;10546;50.674;4.616;2022-08-04T10:59:09;29.70;99.90
20773;DHT22;10546;50.674;4.616;2022-08-04T11:01:43;29.70;99.90
20773;DHT22;10546;50.674;4.616;2022-08-04T11:04:22;29.80;99.90
20773;DHT22;10546;50.674;4.616;2022-08-04T11:06:50;30.20;99.90
20773;DHT22;10546;50.674;4.616;2022-08-04T11:09:17;30.30;99.90
20773;DHT22;10546;50.674;4.616;2022-08-04T11:11:50;30.20;99.90
20773;DHT22;10546;50.674;4.616;2022-08-04T11:14:30;30.30;99.90
20773;DHT22;10546;50.674;4.616;2022-08-04T11:17:05;30.10;99.90
20773;DHT22;10546;50.674;4.616;2022-08-04T11:19:33;29.80;99.90
20773;DHT22;10546;50.674;4.616;2022-08-04T11:22:08;29.20;99.90
20773;DHT22;10546;50.674;4.616;2022-08-04T11:27:27;29.30;99.90
20773;DHT22;10546;50.674;4.616;2022-08-04T11:32:33;29.30;99.90
20773;DHT22;10546;50.674;4.616;2022-08-04T11:35:03;29.00;99.90
20773;DHT22;10546;50.674;4.616;2022-08-04T11:37:57;29.10;99.90
20773;DHT22;10546;50.674;4.616;2022-08-04T11:40:36;29.40;99.90
20773;DHT22;10546;50.674;4.616;2022-08-04T11:43:07;29.60;99.90
20773;DHT22;10546;50.674;4.616;2022-08-04T11:45:37;30.00;99.90
20773;DHT22;10546;50.674;4.616;2022-08-04T11:48:10;30.00;99.90
20773;DHT22;10546;50.674;4.616;2022-08-04T11:50:49;30.30;99.90
20773;DHT22;10546;50.674;4.616;2022-08-04T11:53:20;30.40;99.90
20773;DHT22;10546;50.674;4.616;2022-08-04T11:55:49;30.20;99.90
20773;DHT22;10546;50.674;4.616;2022-08-04T11:58:17;30.10;99.90
20773;DHT22;10546;50.674;4.616;2022-08-04T12:00:54;29.90;99.90
20773;DHT22;10546;50.674;4.616;2022-08-04T12:04:04;29.70;99.90
20773;DHT22;10546;50.674;4.616;2022-08-04T12:06:50;29.50;99.90
20773;DHT22;10546;50.674;4.616;2022-08-04T12:12:36;29.60;99.90
20773;DHT22;10546;50.674;4.616;2022-08-04T12:15:26;29.70;99.90
20773;DHT22;10546;50.674;4.616;2022-08-04T12:21:22;29.60;99.90
20773;DHT22;10546;50.674;4.616;2022-08-04T12:23:51;29.80;99.90
20773;DHT22;10546;50.674;4.616;2022-08-04T12:26:27;29.60;99.90
20773;DHT22;10546;50.674;4.616;2022-08-04T12:29:02;29.70;99.90
20773;DHT22;10546;50.674;4.616;2022-08-04T12:31:40;29.80;99.90
20773;DHT22;10546;50.674;4.616;2022-08-04T12:34:20;30.00;99.90
20773;DHT22;10546;50.674;4.616;2022-08-04T12:37:03;30.10;99.90
20773;DHT22;10546;50.674;4.616;2022-08-04T12:39:32;29.90;99.90
20773;DHT22;10546;50.674;4.616;2022-08-04T12:42:22;30.00;99.90
20773;DHT22;10546;50.674;4.616;2022-08-04T12:44:49;30.10;99.90
20773;DHT22;10546;50.674;4.616;2022-08-04T12:47:22;30.10;99.90
20773;DHT22;10546;50.674;4.616;2022-08-04T12:49:50;29.70;99.90
20773;DHT22;10546;50.674;4.616;2022-08-04T12:52:18;29.90;99.90
20773;DHT22;10546;50.674;4.616;2022-08-04T12:54:47;29.90;99.90
20773;DHT22;10546;50.674;4.616;2022-08-04T12:57:16;30.10;99.90
20773;DHT22;10546;50.674;4.616;2022-08-04T12:59:44;30.60;99.90
20773;DHT22;10546;50.674;4.616;2022-08-04T13:02:17;30.80;99.90
20773;DHT22;10546;50.674;4.616;2022-08-04T13:04:49;31.00;99.90
20773;DHT22;10546;50.674;4.616;2022-08-04T13:07:19;31.20;99.90
20773;DHT22;10546;50.674;4.616;2022-08-04T13:09:46;31.30;99.90
20773;DHT22;10546;50.674;4.616;2022-08-04T13:12:13;31.60;99.90
20773;DHT22;10546;50.674;4.616;2022-08-04T13:14:41;31.60;99.90
20773;DHT22;10546;50.674;4.616;2022-08-04T13:17:10;31.40;99.90
20773;DHT22;10546;50.674;4.616;2022-08-04T13:19:37;31.50;99.90
20773;DHT22;10546;50.674;4.616;2022-08-04T13:22:04;31.60;99.90
20773;DHT22;10546;50.674;4.616;2022-08-04T13:24:31;31.50;99.90
20773;DHT22;10546;50.674;4.616;2022-08-04T13:27:04;31.40;99.90
20773;DHT22;10546;50.674;4.616;2022-08-04T13:29:39;31.60;99.90
20773;DHT22;10546;50.674;4.616;2022-08-04T13:32:05;31.70;99.90
20773;DHT22;10546;50.674;4.616;2022-08-04T13:34:34;31.70;99.90
20773;DHT22;10546;50.674;4.616;2022-08-04T13:37:03;31.60;99.90
20773;DHT22;10546;50.674;4.616;2022-08-04T13:39:32;31.10;99.90
20773;DHT22;10546;50.674;4.616;2022-08-04T13:42:02;31.10;99.90
20773;DHT22;10546;50.674;4.616;2022-08-04T13:44:31;31.00;99.90
20773;DHT22;10546;50.674;4.616;2022-08-04T13:47:06;31.10;99.90
20773;DHT22;10546;50.674;4.616;2022-08-04T13:49:32;31.30;99.90
20773;DHT22;10546;50.674;4.616;2022-08-04T13:52:03;30.90;99.90
20773;DHT22;10546;50.674;4.616;2022-08-04T13:57:05;30.60;99.90
20773;DHT22;10546;50.674;4.616;2022-08-04T13:59:36;30.60;99.90
20773;DHT22;10546;50.674;4.616;2022-08-04T14:02:15;30.50;99.90
20773;DHT22;10546;50.674;4.616;2022-08-04T14:04:52;30.80;99.90
20773;DHT22;10546;50.674;4.616;2022-08-04T14:07:24;30.80;99.90
20773;DHT22;10546;50.674;4.616;2022-08-04T14:09:50;30.80;99.90
20773;DHT22;10546;50.674;4.616;2022-08-04T14:12:16;30.60;99.90
20773;DHT22;10546;50.674;4.616;2022-08-04T14:14:50;30.60;99.90
20773;DHT22;10546;50.674;4.616;2022-08-04T14:17:18;30.60;99.90
20773;DHT22;10546;50.674;4.616;2022-08-04T14:19:58;30.60;99.90
20773;DHT22;10546;50.674;4.616;2022-08-04T14:25:01;31.20;99.90
20773;DHT22;10546;50.674;4.616;2022-08-04T14:27:30;31.40;99.90
20773;DHT22;10546;50.674;4.616;2022-08-04T14:30:05;31.60;99.90
20773;DHT22;10546;50.674;4.616;2022-08-04T14:32:30;31.20;99.90
20773;DHT22;10546;50.674;4.616;2022-08-04T14:34:56;31.40;99.90
20773;DHT22;10546;50.674;4.616;2022-08-04T14:37:22;31.30;99.90
20773;DHT22;10546;50.674;4.616;2022-08-04T14:39:51;31.10;99.90
20773;DHT22;10546;50.674;4.616;2022-08-04T14:42:39;31.20;99.90
20773;DHT22;10546;50.674;4.616;2022-08-04T14:45:06;31.30;99.90
20773;DHT22;10546;50.674;4.616;2022-08-04T14:47:46;31.20;99.90
20773;DHT22;10546;50.674;4.616;2022-08-04T14:50:12;31.30;99.90
20773;DHT22;10546;50.674;4.616;2022-08-04T14:52:39;31.10;99.90
20773;DHT22;10546;50.674;4.616;2022-08-04T14:57:40;30.90;99.90
20773;DHT22;10546;50.674;4.616;2022-08-04T15:00:06;30.60;99.90
20773;DHT22;10546;50.674;4.616;2022-08-04T15:02:32;30.40;99.90
20773;DHT22;10546;50.674;4.616;2022-08-04T15:05:02;30.50;99.90
20773;DHT22;10546;50.674;4.616;2022-08-04T15:07:28;30.30;99.90
20773;DHT22;10546;50.674;4.616;2022-08-04T15:09:54;30.40;99.90
20773;DHT22;10546;50.674;4.616;2022-08-04T15:12:20;30.20;99.90
20773;DHT22;10546;50.674;4.616;2022-08-04T15:14:46;30.00;99.90
20773;DHT22;10546;50.674;4.616;2022-08-04T15:17:12;30.00;99.90
20773;DHT22;10546;50.674;4.616;2022-08-04T15:19:38;30.10;99.90
20773;DHT22;10546;50.674;4.616;2022-08-04T15:22:04;30.10;99.90
20773;DHT22;10546;50.674;4.616;2022-08-04T15:24:31;30.00;99.90
20773;DHT22;10546;50.674;4.616;2022-08-04T15:26:58;30.30;99.90
20773;DHT22;10546;50.674;4.616;2022-08-04T15:29:41;30.20;99.90
20773;DHT22;10546;50.674;4.616;2022-08-04T15:32:14;30.30;99.90
20773;DHT22;10546;50.674;4.616;2022-08-04T15:34:45;30.30;99.90
20773;DHT22;10546;50.674;4.616;2022-08-04T15:40:11;30.30;99.90
20773;DHT22;10546;50.674;4.616;2022-08-04T15:42:48;30.30;99.90
20773;DHT22;10546;50.674;4.616;2022-08-04T15:45:25;30.20;99.90
20773;DHT22;10546;50.674;4.616;2022-08-04T15:50:26;30.50;99.90
20773;DHT22;10546;50.674;4.616;2022-08-04T15:55:34;30.40;99.90
20773;DHT22;10546;50.674;4.616;2022-08-04T15:58:05;30.40;99.90
20773;DHT22;10546;50.674;4.616;2022-08-04T16:05:59;30.10;99.90
20773;DHT22;10546;50.674;4.616;2022-08-04T16:08:26;30.00;99.90
20773;DHT22;10546;50.674;4.616;2022-08-04T16:10:52;29.90;99.90
20773;DHT22;10546;50.674;4.616;2022-08-04T16:13:22;29.90;99.90
20773;DHT22;10546;50.674;4.616;2022-08-04T16:15:54;29.90;99.90
20773;DHT22;10546;50.674;4.616;2022-08-04T16:18:36;29.80;99.90
20773;DHT22;10546;50.674;4.616;2022-08-04T16:21:05;29.90;99.90
20773;DHT22;10546;50.674;4.616;2022-08-04T16:37:00;29.70;99.90
20773;DHT22;10546;50.674;4.616;2022-08-04T16:39:26;29.80;99.90
20773;DHT22;10546;50.674;4.616;2022-08-04T16:41:52;29.60;99.90
20773;DHT22;10546;50.674;4.616;2022-08-04T16:44:34;29.60;99.90
20773;DHT22;10546;50.674;4.616;2022-08-04T16:47:07;29.70;99.90
20773;DHT22;10546;50.674;4.616;2022-08-04T16:49:33;29.70;99.90
20773;DHT22;10546;50.674;4.616;2022-08-04T16:52:04;29.60;99.90
20773;DHT22;10546;50.674;4.616;2022-08-04T16:54:32;29.60;99.90
20773;DHT22;10546;50.674;4.616;2022-08-04T16:56:58;29.60;99.90
20773;DHT22;10546;50.674;4.616;2022-08-04T16:59:25;29.50;99.90
20773;DHT22;10546;50.674;4.616;2022-08-04T17:01:53;29.40;99.90
20773;DHT22;10546;50.674;4.616;2022-08-04T17:04:33;29.30;99.90
20773;DHT22;10546;50.674;4.616;2022-08-04T17:07:00;29.10;99.90
20773;DHT22;10546;50.674;4.616;2022-08-04T17:09:27;29.10;99.90
20773;DHT22;10546;50.674;4.616;2022-08-04T17:11:54;28.90;99.90
20773;DHT22;10546;50.674;4.616;2022-08-04T17:14:24;28.90;99.90
20773;DHT22;10546;50.674;4.616;2022-08-04T17:16:51;29.10;99.90
20773;DHT22;10546;50.674;4.616;2022-08-04T17:19:17;29.00;99.90
20773;DHT22;10546;50.674;4.616;2022-08-04T17:21:43;28.80;99.90
20773;DHT22;10546;50.674;4.616;2022-08-04T17:24:09;28.80;99.90
20773;DHT22;10546;50.674;4.616;2022-08-04T17:26:37;28.80;99.90
20773;DHT22;10546;50.674;4.616;2022-08-04T17:29:04;28.80;99.90
20773;DHT22;10546;50.674;4.616;2022-08-04T17:31:32;28.80;99.90
20773;DHT22;10546;50.674;4.616;2022-08-04T17:33:59;28.90;99.90
20773;DHT22;10546;50.674;4.616;2022-08-04T17:36:27;28.90;99.90
20773;DHT22;10546;50.674;4.616;2022-08-04T17:38:55;28.80;99.90
20773;DHT22;10546;50.674;4.616;2022-08-04T17:41:27;28.70;99.90
20773;DHT22;10546;50.674;4.616;2022-08-04T17:44:01;28.70;99.90
20773;DHT22;10546;50.674;4.616;2022-08-04T17:51:50;28.70;99.90
20773;DHT22;10546;50.674;4.616;2022-08-04T17:54:29;28.80;99.90
20773;DHT22;10546;50.674;4.616;2022-08-04T17:57:16;28.70;99.90
20773;DHT22;10546;50.674;4.616;2022-08-04T17:59:44;28.80;99.90
20773;DHT22;10546;50.674;4.616;2022-08-04T18:02:11;28.90;99.90
20773;DHT22;10546;50.674;4.616;2022-08-04T18:07:19;28.40;99.90
20773;DHT22;10546;50.674;4.616;2022-08-04T18:09:54;28.20;99.90
20773;DHT22;10546;50.674;4.616;2022-08-04T18:14:54;27.60;99.90
20773;DHT22;10546;50.674;4.616;2022-08-04T18:19:56;27.10;99.90
20773;DHT22;10546;50.674;4.616;2022-08-04T18:22:21;27.10;99.90
20773;DHT22;10546;50.674;4.616;2022-08-04T18:24:47;27.10;99.90
20773;DHT22;10546;50.674;4.616;2022-08-04T18:27:14;27.20;99.90
20773;DHT22;10546;50.674;4.616;2022-08-04T18:29:40;27.10;99.90
20773;DHT22;10546;50.674;4.616;2022-08-04T18:32:07;27.10;99.90
20773;DHT22;10546;50.674;4.616;2022-08-04T18:34:33;27.10;99.90
20773;DHT22;10546;50.674;4.616;2022-08-04T18:36:59;26.70;99.90
20773;DHT22;10546;50.674;4.616;2022-08-04T18:39:25;26.60;99.90
20773;DHT22;10546;50.674;4.616;2022-08-04T18:41:52;26.50;99.90
20773;DHT22;10546;50.674;4.616;2022-08-04T18:44:20;26.30;99.90
20773;DHT22;10546;50.674;4.616;2022-08-04T18:46:45;26.20;99.90
20773;DHT22;10546;50.674;4.616;2022-08-04T18:49:11;26.00;99.90
20773;DHT22;10546;50.674;4.616;2022-08-04T18:51:37;25.90;99.90
20773;DHT22;10546;50.674;4.616;2022-08-04T18:54:06;25.90;99.90
20773;DHT22;10546;50.674;4.616;2022-08-04T18:56:32;25.80;99.90
20773;DHT22;10546;50.674;4.616;2022-08-04T18:59:03;25.80;99.90
20773;DHT22;10546;50.674;4.616;2022-08-04T19:01:29;25.70;99.90
20773;DHT22;10546;50.674;4.616;2022-08-04T19:03:54;25.60;99.90
20773;DHT22;10546;50.674;4.616;2022-08-04T19:06:21;25.60;99.90
20773;DHT22;10546;50.674;4.616;2022-08-04T19:08:46;25.50;99.90
20773;DHT22;10546;50.674;4.616;2022-08-04T19:11:12;25.30;99.90
20773;DHT22;10546;50.674;4.616;2022-08-04T19:13:38;25.00;99.90
20773;DHT22;10546;50.674;4.616;2022-08-04T19:16:04;24.70;99.90
20773;DHT22;10546;50.674;4.616;2022-08-04T19:18:30;24.50;99.90
20773;DHT22;10546;50.674;4.616;2022-08-04T19:20:57;24.40;99.90
20773;DHT22;10546;50.674;4.616;2022-08-04T19:23:23;24.10;99.90
20773;DHT22;10546;50.674;4.616;2022-08-04T19:25:49;24.10;99.90
20773;DHT22;10546;50.674;4.616;2022-08-04T19:28:15;24.00;99.90
20773;DHT22;10546;50.674;4.616;2022-08-04T19:30:42;24.00;99.90
20773;DHT22;10546;50.674;4.616;2022-08-04T19:33:08;23.90;99.90
20773;DHT22;10546;50.674;4.616;2022-08-04T19:35:34;23.60;99.90
20773;DHT22;10546;50.674;4.616;2022-08-04T19:38:00;23.30;99.90
20773;DHT22;10546;50.674;4.616;2022-08-04T19:40:25;23.00;99.90
20773;DHT22;10546;50.674;4.616;2022-08-04T19:42:51;22.80;99.90
20773;DHT22;10546;50.674;4.616;2022-08-04T19:45:17;22.60;99.90
20773;DHT22;10546;50.674;4.616;2022-08-04T19:47:43;22.40;99.90
20773;DHT22;10546;50.674;4.616;2022-08-04T19:50:10;22.10;99.90
20773;DHT22;10546;50.674;4.616;2022-08-04T19:52:35;22.10;99.90
20773;DHT22;10546;50.674;4.616;2022-08-04T19:55:01;22.00;99.90
20773;DHT22;10546;50.674;4.616;2022-08-04T19:57:27;22.00;99.90
20773;DHT22;10546;50.674;4.616;2022-08-04T19:59:54;21.70;99.90
20773;DHT22;10546;50.674;4.616;2022-08-04T20:02:19;21.50;99.90
20773;DHT22;10546;50.674;4.616;2022-08-04T20:04:45;21.50;99.90
20773;DHT22;10546;50.674;4.616;2022-08-04T20:07:10;21.40;99.90
20773;DHT22;10546;50.674;4.616;2022-08-04T20:09:36;21.40;99.90
20773;DHT22;10546;50.674;4.616;2022-08-04T20:12:02;21.30;99.90
20773;DHT22;10546;50.674;4.616;2022-08-04T20:14:28;21.20;99.90
20773;DHT22;10546;50.674;4.616;2022-08-04T20:16:53;21.10;99.90